createdAt,value
2023-05-08T00:02:04.899Z,50.89
2023-05-08T00:04:32.962Z,50.41
2023-05-08T00:07:01.554Z,51.04
2023-05-08T00:09:29.853Z,51.33
2023-05-08T00:12:01.367Z,50.29
2023-05-08T00:14:29.296Z,50.56
2023-05-08T00:16:57.395Z,50.66
2023-05-08T00:19:25.845Z,51.41
2023-05-08T00:21:54.033Z,49.88
2023-05-08T00:24:22.297Z,50.65
2023-05-08T00:26:55.063Z,51.42
2023-05-08T00:29:23.251Z,51.65
2023-05-08T00:31:51.174Z,50.54
2023-05-08T00:34:19.172Z,50.96
2023-05-08T00:36:47.874Z,51.15
2023-05-08T00:39:16.012Z,51.86
2023-05-08T00:41:44.026Z,52.07
2023-05-08T00:44:11.996Z,52.53
2023-05-08T00:46:42.433Z,52.37
2023-05-08T00:49:14.476Z,51.70
2023-05-08T00:51:46.529Z,52.35
2023-05-08T00:54:16.306Z,51.98
2023-05-08T00:56:45.891Z,51.53
2023-05-08T00:59:17.221Z,52.11
2023-05-08T01:01:51.623Z,51.50
2023-05-08T01:04:24.912Z,51.83
2023-05-08T01:06:53.013Z,52.00
2023-05-08T01:09:21.331Z,52.03
2023-05-08T01:12:16.375Z,51.70
2023-05-08T01:15:08.679Z,52.16
2023-05-08T01:18:19.835Z,51.15
2023-05-08T01:21:12.774Z,52.59
2023-05-08T01:24:21.834Z,51.49
2023-05-08T01:27:17.601Z,50.94
2023-05-08T01:30:17.891Z,51.32
2023-05-08T01:33:11.527Z,51.51
2023-05-08T01:35:56.808Z,50.93
2023-05-08T01:38:36.044Z,51.55
2023-05-08T01:41:16.874Z,52.13
2023-05-08T01:44:35.261Z,52.35
2023-05-08T01:47:11.135Z,52.74
2023-05-08T01:49:47.734Z,53.00
2023-05-08T01:52:33.906Z,52.83
2023-05-08T01:55:10.234Z,52.49
2023-05-08T01:57:48.411Z,52.13
2023-05-08T02:00:21.984Z,52.71
2023-05-08T02:02:54.427Z,52.26
2023-05-08T02:05:25.779Z,51.99
2023-05-08T02:07:56.128Z,52.65
2023-05-08T02:10:26.569Z,51.96
2023-05-08T02:12:56.303Z,52.20
2023-05-08T02:15:27.666Z,52.36
2023-05-08T02:17:57.756Z,52.75
2023-05-08T02:20:29.027Z,52.89
2023-05-08T02:22:58.179Z,53.18
2023-05-08T02:25:28.329Z,53.16
2023-05-08T02:27:59.761Z,52.95
2023-05-08T02:30:29.537Z,52.85
2023-05-08T02:33:00.970Z,53.61
2023-05-08T02:35:31.664Z,53.99
2023-05-08T02:38:02.566Z,54.47
2023-05-08T02:40:32.599Z,54.22
2023-05-08T02:43:02.934Z,54.44
2023-05-08T02:46:21.546Z,54.36
2023-05-08T02:49:03.658Z,55.12
2023-05-08T02:52:13.988Z,55.44
2023-05-08T02:55:07.539Z,54.82
2023-05-08T02:57:53.622Z,55.26
2023-05-08T03:00:29.223Z,54.68
2023-05-08T03:03:15.459Z,54.64
2023-05-08T03:05:52.708Z,53.88
2023-05-08T03:08:32.872Z,53.69
2023-05-08T03:11:17.688Z,55.13
2023-05-08T03:13:50.060Z,54.34
2023-05-08T03:16:24.454Z,55.60
2023-05-08T03:19:03.820Z,56.12
2023-05-08T03:21:32.886Z,54.78
2023-05-08T03:24:03.968Z,55.28
2023-05-08T03:26:32.347Z,55.47
2023-05-08T03:29:00.814Z,54.85
2023-05-08T03:31:34.851Z,55.47
2023-05-08T03:34:07.339Z,56.23
2023-05-08T03:36:36.615Z,56.23
2023-05-08T03:39:05.850Z,56.42
2023-05-08T03:41:34.568Z,56.33
2023-05-08T03:44:04.932Z,56.77
2023-05-08T03:46:34.552Z,56.89
2023-05-08T03:49:10.230Z,56.91
2023-05-08T03:51:43.124Z,57.57
2023-05-08T03:54:12.177Z,57.66
2023-05-08T03:56:42.798Z,56.28
2023-05-08T03:59:28.317Z,55.94
2023-05-08T04:02:17.618Z,55.84
2023-05-08T04:04:53.028Z,56.61
2023-05-08T04:07:42.271Z,56.13
2023-05-08T04:10:19.487Z,54.52
2023-05-08T04:13:03.245Z,55.66
2023-05-08T04:15:38.530Z,55.21
2023-05-08T04:18:14.788Z,56.34
2023-05-08T04:20:49.010Z,55.53
2023-05-08T04:23:22.115Z,55.21
2023-05-08T04:25:53.265Z,55.94
2023-05-08T04:28:22.516Z,56.99
2023-05-08T04:30:52.968Z,57.42
2023-05-08T04:33:21.203Z,55.77
2023-05-08T04:35:50.268Z,56.80
2023-05-08T04:38:18.117Z,57.73
2023-05-08T04:40:46.672Z,58.68
2023-05-08T04:43:14.996Z,58.55
2023-05-08T04:45:43.126Z,57.87
2023-05-08T04:48:11.025Z,58.00
2023-05-08T04:50:39.191Z,57.53
2023-05-08T04:53:07.316Z,56.86
2023-05-08T04:55:35.375Z,56.64
2023-05-08T04:58:03.348Z,56.28
2023-05-08T05:00:32.168Z,57.40
2023-05-08T05:03:00.902Z,58.80
2023-05-08T05:05:29.033Z,58.22
2023-05-08T05:07:56.843Z,57.08
2023-05-08T05:10:27.787Z,57.08
2023-05-08T05:12:56.194Z,56.16
2023-05-08T05:15:24.657Z,57.01
2023-05-08T05:17:53.584Z,56.33
2023-05-08T05:20:21.457Z,55.62
2023-05-08T05:22:49.493Z,56.61
2023-05-08T05:25:17.532Z,58.82
2023-05-08T05:27:46.685Z,56.72
2023-05-08T05:30:15.027Z,58.44
2023-05-08T05:32:46.405Z,58.01
2023-05-08T05:35:14.536Z,55.69
2023-05-08T05:37:42.390Z,55.42
2023-05-08T05:40:13.485Z,57.45
2023-05-08T05:42:49.181Z,56.58
2023-05-08T05:45:18.057Z,55.07
2023-05-08T05:47:50.491Z,55.54
2023-05-08T05:50:19.167Z,54.61
2023-05-08T05:52:47.448Z,55.75
2023-05-08T05:55:15.515Z,54.87
2023-05-08T05:57:43.605Z,53.95
2023-05-08T06:00:12.278Z,53.41
2023-05-08T06:02:42.001Z,52.94
2023-05-08T06:05:11.383Z,52.65
2023-05-08T06:07:40.135Z,52.03
2023-05-08T06:10:09.072Z,51.83
2023-05-08T06:12:37.471Z,51.64
2023-05-08T06:15:06.687Z,51.48
2023-05-08T06:17:34.547Z,52.34
2023-05-08T06:20:06.703Z,52.07
2023-05-08T06:22:34.802Z,51.36
2023-05-08T06:25:03.430Z,51.72
2023-05-08T06:27:31.320Z,52.18
2023-05-08T06:29:59.601Z,51.32
2023-05-08T06:32:28.816Z,51.02
2023-05-08T06:34:57.160Z,50.76
2023-05-08T06:37:25.672Z,50.45
2023-05-08T06:40:03.936Z,50.24
2023-05-08T06:42:38.780Z,49.93
2023-05-08T06:45:09.020Z,49.84
2023-05-08T06:47:37.832Z,49.87
2023-05-08T06:50:07.051Z,49.53
2023-05-08T06:52:34.995Z,49.37
2023-05-08T06:55:03.466Z,49.18
2023-05-08T06:57:31.554Z,49.14
2023-05-08T06:59:59.632Z,49.21
2023-05-08T07:02:30.719Z,49.45
2023-05-08T07:04:58.806Z,49.34
2023-05-08T07:07:27.116Z,49.07
2023-05-08T07:09:54.923Z,48.90
2023-05-08T07:12:23.802Z,48.35
2023-05-08T07:14:51.585Z,48.25
2023-05-08T07:17:19.803Z,48.18
2023-05-08T07:19:51.663Z,48.04
2023-05-08T07:22:19.545Z,47.98
2023-05-08T07:24:47.661Z,47.91
2023-05-08T07:27:15.742Z,47.94
2023-05-08T07:29:46.680Z,47.96
2023-05-08T07:32:15.750Z,47.95
2023-05-08T07:34:43.912Z,47.85
2023-05-08T07:37:13.031Z,47.59
2023-05-08T07:39:40.984Z,47.24
2023-05-08T07:42:08.815Z,46.96
2023-05-08T07:44:46.976Z,46.62
2023-05-08T07:47:19.091Z,46.10
2023-05-08T07:49:47.034Z,45.81
2023-05-08T07:52:14.857Z,45.82
2023-05-08T07:54:44.110Z,45.85
2023-05-08T07:57:12.052Z,45.65
2023-05-08T07:59:40.005Z,45.53
2023-05-08T08:02:08.015Z,45.44
2023-05-08T08:04:36.217Z,45.20
2023-05-08T08:07:04.042Z,45.12
2023-05-08T08:09:32.614Z,44.77
2023-05-08T08:12:00.432Z,44.96
2023-05-08T08:14:30.220Z,44.88
2023-05-08T08:16:58.084Z,44.82
2023-05-08T08:19:26.555Z,44.40
2023-05-08T08:21:55.210Z,44.34
2023-05-08T08:24:24.690Z,44.49
2023-05-08T08:26:53.031Z,44.28
2023-05-08T08:29:22.319Z,44.21
2023-05-08T08:31:51.032Z,43.99
2023-05-08T08:34:19.066Z,43.82
2023-05-08T08:36:46.831Z,43.44
2023-05-08T08:39:15.748Z,43.11
2023-05-08T08:41:43.814Z,43.30
2023-05-08T08:44:11.758Z,43.45
2023-05-08T08:46:53.421Z,43.32
2023-05-08T08:49:39.034Z,42.88
2023-05-08T08:52:32.357Z,42.52
2023-05-08T08:55:03.332Z,41.60
2023-05-08T08:57:44.448Z,41.67
2023-05-08T09:00:14.363Z,41.42
2023-05-08T09:02:42.486Z,41.21
2023-05-08T09:05:11.708Z,40.52
2023-05-08T09:07:41.959Z,39.63
2023-05-08T09:10:15.694Z,39.66
2023-05-08T09:12:45.364Z,39.81
2023-05-08T09:15:13.712Z,39.15
2023-05-08T09:17:43.492Z,39.46
2023-05-08T09:20:15.910Z,39.05
2023-05-08T09:22:44.634Z,38.16
2023-05-08T09:25:12.807Z,38.26
2023-05-08T09:27:40.961Z,38.16
2023-05-08T09:30:12.461Z,38.27
2023-05-08T09:32:45.572Z,38.01
2023-05-08T09:35:14.134Z,37.76
2023-05-08T09:37:44.158Z,38.26
2023-05-08T09:40:19.252Z,38.07
2023-05-08T09:42:51.040Z,38.07
2023-05-08T09:45:31.709Z,38.04
2023-05-08T09:47:59.966Z,37.95
2023-05-08T09:50:28.168Z,37.94
2023-05-08T09:52:56.274Z,38.49
2023-05-08T09:55:24.828Z,38.52
2023-05-08T09:58:03.425Z,38.66
2023-05-08T10:00:40.047Z,38.42
2023-05-08T10:03:07.980Z,37.99
2023-05-08T10:05:38.485Z,37.87
2023-05-08T10:08:24.068Z,37.56
2023-05-08T10:10:52.336Z,37.79
2023-05-08T10:13:20.185Z,37.90
2023-05-08T10:15:54.954Z,37.93
2023-05-08T10:18:28.931Z,37.45
2023-05-08T10:21:04.718Z,36.84
2023-05-08T10:23:35.220Z,36.40
2023-05-08T10:26:27.658Z,36.26
2023-05-08T10:29:01.464Z,36.32
2023-05-08T10:31:35.519Z,36.44
2023-05-08T10:34:04.366Z,36.27
2023-05-08T10:36:34.398Z,35.49
2023-05-08T10:39:02.989Z,35.71
2023-05-08T10:41:31.134Z,36.43
2023-05-08T10:44:03.160Z,37.12
2023-05-08T10:46:53.227Z,37.77
2023-05-08T10:49:48.431Z,38.14
2023-05-08T10:52:33.401Z,38.40
2023-05-08T10:55:22.354Z,38.80
2023-05-08T10:58:32.737Z,39.07
2023-05-08T11:01:17.756Z,39.26
2023-05-08T11:03:51.021Z,39.65
2023-05-08T11:06:49.352Z,39.29
2023-05-08T11:09:45.800Z,39.57
2023-05-08T11:12:27.102Z,39.42
2023-05-08T11:15:07.241Z,39.14
2023-05-08T11:17:35.554Z,39.23
2023-05-08T11:20:07.693Z,39.06
2023-05-08T11:22:37.093Z,38.84
2023-05-08T11:25:09.442Z,38.17
2023-05-08T11:28:06.829Z,38.27
2023-05-08T11:30:38.595Z,38.05
2023-05-08T11:33:15.686Z,38.04
2023-05-08T11:35:52.332Z,37.95
2023-05-08T11:38:32.208Z,36.78
2023-05-08T11:41:02.959Z,36.60
2023-05-08T11:43:34.011Z,36.74
2023-05-08T11:46:19.965Z,36.49
2023-05-08T11:48:48.955Z,36.99
2023-05-08T11:51:22.062Z,37.53
2023-05-08T11:53:51.671Z,37.82
2023-05-08T11:56:19.784Z,38.01
2023-05-08T11:58:47.765Z,37.34
2023-05-08T12:01:24.283Z,37.11
2023-05-08T12:04:06.154Z,36.55
2023-05-08T12:06:39.468Z,36.41
2023-05-08T12:09:18.816Z,36.53
2023-05-08T12:11:46.885Z,36.29
2023-05-08T12:14:18.083Z,36.00
2023-05-08T12:16:46.148Z,36.06
2023-05-08T12:19:14.468Z,35.98
2023-05-08T12:21:49.248Z,35.74
2023-05-08T12:24:27.367Z,35.50
2023-05-08T12:26:56.634Z,34.79
2023-05-08T12:29:26.100Z,35.15
2023-05-08T12:31:54.685Z,35.16
2023-05-08T12:34:23.110Z,35.48
2023-05-08T12:37:05.178Z,35.76
2023-05-08T12:39:37.807Z,35.59
2023-05-08T12:42:06.065Z,35.55
2023-05-08T12:44:33.932Z,35.42
2023-05-08T12:47:03.027Z,35.57
2023-05-08T12:49:32.742Z,35.59
2023-05-08T12:52:06.908Z,35.70
2023-05-08T12:54:41.335Z,35.42
2023-05-08T12:57:21.927Z,35.16
2023-05-08T12:59:49.979Z,35.27
2023-05-08T13:02:24.313Z,35.43
2023-05-08T13:04:57.175Z,34.90
2023-05-08T13:07:31.324Z,35.13
2023-05-08T13:10:04.886Z,35.13
2023-05-08T13:12:33.088Z,34.85
2023-05-08T13:15:01.687Z,35.02
2023-05-08T13:17:32.273Z,35.19
2023-05-08T13:20:00.636Z,35.17
2023-05-08T13:22:28.764Z,35.07
2023-05-08T13:24:56.766Z,34.83
2023-05-08T13:27:24.653Z,34.56
2023-05-08T13:29:52.807Z,34.57
2023-05-08T13:32:20.942Z,34.57
2023-05-08T13:34:51.058Z,34.87
2023-05-08T13:37:20.310Z,34.69
2023-05-08T13:39:48.128Z,34.15
2023-05-08T13:42:16.233Z,33.96
2023-05-08T13:44:44.713Z,34.07
2023-05-08T13:47:14.758Z,34.23
2023-05-08T13:49:44.275Z,34.25
2023-05-08T13:52:12.141Z,34.59
2023-05-08T13:54:41.014Z,34.86
2023-05-08T13:57:09.562Z,34.56
2023-05-08T13:59:37.423Z,34.53
2023-05-08T14:02:05.749Z,34.65
2023-05-08T14:04:34.419Z,34.42
2023-05-08T14:07:04.013Z,33.73
2023-05-08T14:09:33.183Z,33.09
2023-05-08T14:12:02.535Z,33.08
2023-05-08T14:14:32.517Z,33.38
2023-05-08T14:17:06.269Z,33.00
2023-05-08T14:19:35.050Z,33.24
2023-05-08T14:22:03.282Z,32.97
2023-05-08T14:24:32.704Z,33.44
2023-05-08T14:27:06.260Z,33.24
2023-05-08T14:29:35.213Z,33.28
2023-05-08T14:32:04.084Z,32.98
2023-05-08T14:34:33.810Z,33.07
2023-05-08T14:37:03.161Z,32.45
2023-05-08T14:39:32.250Z,32.96
2023-05-08T14:44:34.249Z,32.64
2023-05-08T14:47:02.213Z,32.77
2023-05-08T14:49:37.282Z,32.83
2023-05-08T14:52:07.001Z,33.22
2023-05-08T14:54:35.282Z,33.30
2023-05-08T14:57:03.492Z,33.65
2023-05-08T14:59:31.343Z,33.62
2023-05-08T15:01:59.272Z,33.98
2023-05-08T15:04:27.244Z,34.46
2023-05-08T15:06:56.219Z,34.35
2023-05-08T15:09:24.932Z,34.61
2023-05-08T15:11:53.297Z,34.95
2023-05-08T15:14:21.187Z,35.52
2023-05-08T15:16:49.349Z,36.01
2023-05-08T15:19:17.545Z,36.48
2023-05-08T15:21:45.877Z,36.78
2023-05-08T15:24:16.267Z,37.34
2023-05-08T15:26:44.477Z,37.91
2023-05-08T15:29:12.241Z,38.04
2023-05-08T15:31:40.155Z,38.82
2023-05-08T15:34:07.992Z,39.10
2023-05-08T15:36:36.127Z,39.22
2023-05-08T15:39:06.395Z,39.52
2023-05-08T15:41:36.479Z,40.09
2023-05-08T15:44:04.938Z,40.68
2023-05-08T15:46:32.904Z,41.01
2023-05-08T15:49:03.379Z,41.24
2023-05-08T15:51:31.863Z,41.65
2023-05-08T15:53:59.869Z,41.92
2023-05-08T15:56:29.011Z,42.34
2023-05-08T15:58:56.879Z,42.47
2023-05-08T16:01:25.103Z,42.53
2023-05-08T16:03:53.232Z,42.62
2023-05-08T16:06:21.242Z,42.76
2023-05-08T16:08:49.422Z,42.73
2023-05-08T16:11:21.163Z,42.62
2023-05-08T16:13:49.271Z,42.53
2023-05-08T16:16:17.703Z,42.31
2023-05-08T16:18:45.733Z,42.25
2023-05-08T16:21:13.578Z,42.16
2023-05-08T16:23:42.794Z,42.04
2023-05-08T16:26:10.645Z,42.28
2023-05-08T16:28:38.748Z,42.39
2023-05-08T16:31:07.715Z,42.18
2023-05-08T16:33:35.831Z,41.91
2023-05-08T16:36:04.503Z,41.94
2023-05-08T16:38:32.719Z,41.79
2023-05-08T16:41:06.832Z,41.63
2023-05-08T16:43:35.371Z,41.71
2023-05-08T16:46:07.067Z,41.85
2023-05-08T16:48:35.014Z,42.21
2023-05-08T16:51:03.887Z,42.48
2023-05-08T16:53:33.019Z,42.80
2023-05-08T16:56:01.364Z,42.86
2023-05-08T16:58:30.626Z,42.93
2023-05-08T17:00:59.021Z,42.79
2023-05-08T17:03:28.240Z,42.80
2023-05-08T17:05:56.358Z,42.74
2023-05-08T17:08:24.199Z,42.05
2023-05-08T17:10:54.296Z,42.05
2023-05-08T17:13:24.314Z,41.96
2023-05-08T17:15:52.891Z,42.16
2023-05-08T17:18:20.998Z,42.33
2023-05-08T17:20:51.967Z,42.62
2023-05-08T17:23:19.825Z,42.89
2023-05-08T17:25:47.747Z,43.28
2023-05-08T17:28:15.858Z,43.68
2023-05-08T17:30:44.845Z,43.98
2023-05-08T17:33:13.771Z,44.41
2023-05-08T17:35:42.089Z,44.71
2023-05-08T17:38:10.759Z,44.72
2023-05-08T17:40:41.560Z,44.92
2023-05-08T17:43:09.715Z,45.20
2023-05-08T17:45:39.545Z,45.22
2023-05-08T17:48:08.449Z,45.43
2023-05-08T17:50:42.313Z,45.33
2023-05-08T17:53:14.755Z,45.60
2023-05-08T17:55:42.647Z,45.72
2023-05-08T17:58:10.462Z,45.61
2023-05-08T18:00:38.369Z,45.63
2023-05-08T18:03:06.337Z,45.72
2023-05-08T18:05:34.638Z,46.04
2023-05-08T18:08:05.848Z,46.20
2023-05-08T18:10:39.533Z,46.56
2023-05-08T18:13:08.963Z,46.80
2023-05-08T18:15:41.027Z,47.32
2023-05-08T18:18:08.906Z,47.42
2023-05-08T18:20:36.916Z,47.77
2023-05-08T18:23:14.506Z,47.68
2023-05-08T18:25:42.457Z,48.29
2023-05-08T18:28:12.846Z,48.64
2023-05-08T18:30:40.973Z,48.93
2023-05-08T18:33:08.945Z,49.36
2023-05-08T18:35:36.913Z,49.67
2023-05-08T18:38:04.716Z,49.31
2023-05-08T18:40:32.561Z,49.76
2023-05-08T18:43:00.830Z,49.80
2023-05-08T18:45:28.821Z,50.34
2023-05-08T18:47:57.846Z,50.69
2023-05-08T18:50:26.942Z,50.55
2023-05-08T18:52:54.941Z,50.85
2023-05-08T18:55:27.605Z,50.85
2023-05-08T18:57:55.694Z,51.12
2023-05-08T19:00:26.600Z,51.34
2023-05-08T19:02:54.828Z,51.64
2023-05-08T19:05:24.236Z,51.94
2023-05-08T19:07:53.319Z,52.33
2023-05-08T19:10:21.663Z,52.89
2023-05-08T19:12:50.869Z,53.45
2023-05-08T19:15:20.149Z,53.38
2023-05-08T19:17:48.454Z,54.27
2023-05-08T19:20:17.320Z,54.42
2023-05-08T19:22:46.824Z,54.34
2023-05-08T19:25:15.774Z,54.78
2023-05-08T19:27:44.227Z,55.29
2023-05-08T19:30:12.911Z,55.23
2023-05-08T19:32:43.773Z,55.37
2023-05-08T19:35:11.977Z,55.91
2023-05-08T19:37:42.317Z,56.28
2023-05-08T19:40:11.710Z,57.02
2023-05-08T19:42:40.256Z,56.81
2023-05-08T19:45:09.414Z,57.07
2023-05-08T19:47:37.992Z,57.48
2023-05-08T19:50:07.478Z,57.72
2023-05-08T19:52:36.567Z,57.69
2023-05-08T19:55:06.112Z,57.84
2023-05-08T19:57:34.500Z,58.52
2023-05-08T20:00:04.552Z,58.64
2023-05-08T20:02:35.087Z,59.63
2023-05-08T20:05:21.870Z,59.78
2023-05-08T20:07:56.735Z,59.46
2023-05-08T20:10:26.534Z,60.27
2023-05-08T20:12:57.672Z,60.32
2023-05-08T20:15:25.940Z,60.48
2023-05-08T20:17:55.719Z,60.30
2023-05-08T20:20:24.100Z,60.46
2023-05-08T20:22:55.007Z,60.57
2023-05-08T20:25:23.127Z,60.47
2023-05-08T20:27:51.471Z,60.54
2023-05-08T20:30:23.637Z,60.51
2023-05-08T20:32:52.433Z,60.53
2023-05-08T20:35:21.969Z,60.80
2023-05-08T20:37:50.823Z,60.95
2023-05-08T20:40:20.737Z,61.01
2023-05-08T20:42:49.064Z,62.42
2023-05-08T20:45:17.587Z,67.86
2023-05-08T20:47:48.599Z,59.45
2023-05-08T20:50:17.046Z,55.05
2023-05-08T20:52:48.097Z,54.17
2023-05-08T20:55:18.082Z,55.50
2023-05-08T20:57:46.371Z,56.66
2023-05-08T21:00:16.399Z,57.40
2023-05-08T21:02:46.877Z,58.05
2023-05-08T21:05:17.167Z,58.71
2023-05-08T21:07:45.168Z,58.72
2023-05-08T21:10:14.625Z,59.01
2023-05-08T21:12:44.570Z,59.07
2023-05-08T21:15:13.720Z,59.32
2023-05-08T21:17:44.759Z,59.48
2023-05-08T21:20:14.521Z,59.64
2023-05-08T21:22:43.174Z,60.19
2023-05-08T21:25:12.559Z,60.01
2023-05-08T21:27:42.785Z,60.36
2023-05-08T21:30:15.484Z,60.78
2023-05-08T21:32:46.302Z,61.02
2023-05-08T21:35:15.986Z,60.92
2023-05-08T21:37:44.733Z,61.19
2023-05-08T21:40:13.227Z,60.91
2023-05-08T21:42:41.237Z,66.88
2023-05-08T21:45:12.769Z,70.62
2023-05-08T21:47:41.826Z,63.80
2023-05-08T21:50:10.864Z,55.58
2023-05-08T21:52:40.684Z,52.38
2023-05-08T21:55:10.148Z,52.69
2023-05-08T21:57:38.431Z,53.62
2023-05-08T22:00:11.323Z,54.46
2023-05-08T22:02:40.518Z,55.38
2023-05-08T22:05:10.381Z,56.46
2023-05-08T22:07:38.354Z,56.79
2023-05-08T22:10:09.678Z,58.23
2023-05-08T22:12:39.521Z,58.59
2023-05-08T22:15:17.925Z,59.35
2023-05-08T22:17:58.858Z,59.96
2023-05-08T22:20:28.493Z,60.07
2023-05-08T22:22:56.426Z,60.02
2023-05-08T22:25:33.308Z,60.81
2023-05-08T22:28:01.761Z,60.99
2023-05-08T22:30:29.825Z,61.21
2023-05-08T22:32:59.560Z,65.04
2023-05-08T22:35:28.622Z,66.45
2023-05-08T22:38:00.230Z,57.03
2023-05-08T22:40:28.862Z,55.18
2023-05-08T22:42:59.146Z,55.13
2023-05-08T22:45:28.239Z,56.11
2023-05-08T22:47:57.916Z,56.88
2023-05-08T22:50:26.000Z,58.12
2023-05-08T22:53:04.426Z,58.58
2023-05-08T22:55:32.463Z,59.37
2023-05-08T22:58:03.949Z,60.19
2023-05-08T23:00:31.954Z,60.14
2023-05-08T23:03:00.186Z,60.86
2023-05-08T23:05:28.694Z,61.37
2023-05-08T23:07:56.525Z,63.91
2023-05-08T23:10:24.996Z,65.13
2023-05-08T23:12:53.981Z,61.12
2023-05-08T23:15:22.231Z,54.01
2023-05-08T23:17:51.327Z,53.46
2023-05-08T23:20:21.924Z,55.22
2023-05-08T23:22:50.254Z,56.52
2023-05-08T23:25:18.567Z,57.14
2023-05-08T23:27:46.889Z,58.43
2023-05-08T23:30:16.960Z,58.61
2023-05-08T23:32:45.425Z,59.78
2023-05-08T23:35:14.684Z,60.69
2023-05-08T23:37:43.099Z,61.60
2023-05-08T23:40:11.505Z,64.25
2023-05-08T23:42:41.994Z,59.92
2023-05-08T23:45:12.553Z,56.55
2023-05-08T23:47:40.649Z,56.44
2023-05-08T23:50:09.269Z,57.25
2023-05-08T23:52:37.164Z,57.85
2023-05-08T23:55:09.359Z,59.44
2023-05-08T23:57:37.410Z,59.60
